createdAt,value
2019-04-26T00:02:05.544Z,7.60
2019-04-26T00:04:33.755Z,7.80
2019-04-26T00:07:01.349Z,7.70
2019-04-26T00:09:36.381Z,7.60
2019-04-26T00:12:23.599Z,7.70
2019-04-26T00:15:10.102Z,7.70
2019-04-26T00:17:43.831Z,7.50
2019-04-26T00:20:12.917Z,7.30
2019-04-26T00:22:40.896Z,7.40
2019-04-26T00:25:08.399Z,7.40
2019-04-26T00:27:36.187Z,7.60
2019-04-26T00:30:04.675Z,7.60
2019-04-26T00:32:32.611Z,7.90
2019-04-26T00:35:00.213Z,7.90
2019-04-26T00:37:28.241Z,7.90
2019-04-26T00:39:56.107Z,7.70
2019-04-26T00:42:24.220Z,7.60
2019-04-26T00:44:52.481Z,7.60
2019-04-26T00:47:21.922Z,7.60
2019-04-26T00:49:50.205Z,7.70
2019-04-26T00:52:18.274Z,7.80
2019-04-26T00:54:47.559Z,7.90
2019-04-26T00:57:16.532Z,8.10
2019-04-26T00:59:44.350Z,8.10
2019-04-26T01:02:18.578Z,8.10
2019-04-26T01:04:47.585Z,7.90
2019-04-26T01:07:15.700Z,7.90
2019-04-26T01:09:43.365Z,7.90
2019-04-26T01:12:11.293Z,7.90
2019-04-26T01:14:38.927Z,7.90
2019-04-26T01:17:06.902Z,7.90
2019-04-26T01:19:36.708Z,7.80
2019-04-26T01:22:08.523Z,7.80
2019-04-26T01:24:38.955Z,7.70
2019-04-26T01:27:07.749Z,7.60
2019-04-26T01:29:36.901Z,7.70
2019-04-26T01:32:10.844Z,7.60
2019-04-26T01:34:41.176Z,7.60
2019-04-26T01:37:09.676Z,7.60
2019-04-26T01:39:42.046Z,7.60
2019-04-26T01:42:16.755Z,7.60
2019-04-26T01:44:53.159Z,7.70
2019-04-26T01:47:22.235Z,7.80
2019-04-26T01:49:50.784Z,7.80
2019-04-26T01:52:19.076Z,7.90
2019-04-26T01:54:46.794Z,8.00
2019-04-26T01:57:15.449Z,8.00
2019-04-26T01:59:48.654Z,8.00
2019-04-26T02:02:32.651Z,8.00
2019-04-26T02:05:03.043Z,8.00
2019-04-26T02:07:40.761Z,8.00
2019-04-26T02:10:12.294Z,8.00
2019-04-26T02:12:43.702Z,8.00
2019-04-26T02:15:12.281Z,8.00
2019-04-26T02:17:41.626Z,8.10
2019-04-26T02:20:10.977Z,8.10
2019-04-26T02:22:50.164Z,7.90
2019-04-26T02:25:18.480Z,7.70
2019-04-26T02:27:59.128Z,7.60
2019-04-26T02:30:28.745Z,7.60
2019-04-26T02:32:56.880Z,7.50
2019-04-26T02:35:25.585Z,7.40
2019-04-26T02:37:54.247Z,7.50
2019-04-26T02:40:22.305Z,7.60
2019-04-26T02:42:50.401Z,7.60
2019-04-26T02:46:12.344Z,7.60
2019-04-26T02:49:33.048Z,7.60
2019-04-26T02:52:25.300Z,7.60
2019-04-26T02:55:10.214Z,7.60
2019-04-26T02:57:44.474Z,7.60
2019-04-26T03:00:13.329Z,7.70
2019-04-26T03:02:43.349Z,7.80
2019-04-26T03:05:12.517Z,7.90
2019-04-26T03:07:54.419Z,7.80
2019-04-26T03:10:31.821Z,7.90
2019-04-26T03:13:02.212Z,7.90
2019-04-26T03:15:51.394Z,7.90
2019-04-26T03:18:38.483Z,7.80
2019-04-26T03:21:16.521Z,7.80
2019-04-26T03:24:22.209Z,7.80
2019-04-26T03:27:16.359Z,7.80
2019-04-26T03:30:18.708Z,7.90
2019-04-26T03:33:52.425Z,8.10
2019-04-26T03:36:47.199Z,8.10
2019-04-26T03:39:34.247Z,8.10
2019-04-26T03:42:33.132Z,8.20
2019-04-26T03:45:25.466Z,8.30
2019-04-26T03:48:26.443Z,8.30
2019-04-26T03:51:04.873Z,8.30
2019-04-26T03:53:51.183Z,8.30
2019-04-26T03:57:13.795Z,8.40
2019-04-26T04:00:22.934Z,8.30
2019-04-26T04:03:37.847Z,8.40
2019-04-26T04:06:08.619Z,8.30
2019-04-26T04:08:48.209Z,8.40
2019-04-26T04:11:21.201Z,8.40
2019-04-26T04:13:55.593Z,8.40
2019-04-26T04:16:41.377Z,8.50
2019-04-26T04:19:33.929Z,8.50
2019-04-26T04:22:06.271Z,8.50
2019-04-26T04:24:45.055Z,8.60
2019-04-26T04:27:35.254Z,8.60
2019-04-26T04:30:15.047Z,8.60
2019-04-26T04:33:21.777Z,8.60
2019-04-26T04:35:54.352Z,8.60
2019-04-26T04:38:48.410Z,8.70
2019-04-26T04:41:36.416Z,8.70
2019-04-26T04:44:24.934Z,8.80
2019-04-26T04:47:25.842Z,8.80
2019-04-26T04:50:11.031Z,8.80
2019-04-26T04:53:06.131Z,8.90
2019-04-26T04:55:47.889Z,8.80
2019-04-26T04:58:19.697Z,8.90
2019-04-26T05:01:28.334Z,8.80
2019-04-26T05:04:05.623Z,8.90
2019-04-26T05:06:53.247Z,8.90
2019-04-26T05:09:31.159Z,8.90
2019-04-26T05:12:13.851Z,8.80
2019-04-26T05:15:09.759Z,8.90
2019-04-26T05:18:00.665Z,8.90
2019-04-26T05:20:45.610Z,8.90
2019-04-26T05:23:47.509Z,8.90
2019-04-26T05:27:01.976Z,9.00
2019-04-26T05:30:09.019Z,9.00
2019-04-26T05:33:10.449Z,9.10
2019-04-26T05:36:14.589Z,9.20
2019-04-26T05:38:51.422Z,9.20
2019-04-26T05:41:38.571Z,9.20
2019-04-26T05:44:34.555Z,9.30
2019-04-26T05:47:38.276Z,9.40
2019-04-26T05:51:23.119Z,9.40
2019-04-26T05:54:42.667Z,9.50
2019-04-26T05:57:42.451Z,9.50
2019-04-26T06:00:55.743Z,9.60
2019-04-26T06:04:17.801Z,9.60
2019-04-26T06:07:01.582Z,9.70
2019-04-26T06:10:32.969Z,9.70
2019-04-26T06:13:34.941Z,9.80
2019-04-26T06:16:40.349Z,9.80
2019-04-26T06:19:38.424Z,9.70
2019-04-26T06:22:27.006Z,9.60
2019-04-26T06:25:26.984Z,9.60
2019-04-26T06:28:02.882Z,9.60
2019-04-26T06:31:01.389Z,9.60
2019-04-26T06:33:48.646Z,9.80
2019-04-26T06:36:27.483Z,10.30
2019-04-26T06:39:27.893Z,10.70
2019-04-26T06:43:00.566Z,11.00
2019-04-26T06:46:10.263Z,11.30
2019-04-26T06:49:05.484Z,11.50
2019-04-26T06:51:39.767Z,11.60
2019-04-26T06:54:19.063Z,11.80
2019-04-26T06:57:37.245Z,11.90
2019-04-26T07:00:16.045Z,11.90
2019-04-26T07:03:13.765Z,11.70
2019-04-26T07:05:44.933Z,11.30
2019-04-26T07:08:39.493Z,11.50
2019-04-26T07:12:21.341Z,12.00
2019-04-26T07:15:27.932Z,12.50
2019-04-26T07:18:04.443Z,13.00
2019-04-26T07:20:48.691Z,13.30
2019-04-26T07:24:13.446Z,13.50
2019-04-26T07:27:20.304Z,13.60
2019-04-26T07:30:12.207Z,13.70
2019-04-26T07:33:46.318Z,13.70
2019-04-26T07:36:54.093Z,13.80
2019-04-26T07:39:47.015Z,13.90
2019-04-26T07:42:47.685Z,14.20
2019-04-26T07:45:40.392Z,14.20
2019-04-26T07:48:33.484Z,14.00
2019-04-26T07:51:44.063Z,14.10
2019-04-26T07:55:04.898Z,14.50
2019-04-26T07:58:22.507Z,14.60
2019-04-26T08:01:14.051Z,14.70
2019-04-26T08:03:54.198Z,15.20
2019-04-26T08:06:56.370Z,15.20
2019-04-26T08:09:27.564Z,15.10
2019-04-26T08:12:06.234Z,15.10
2019-04-26T08:14:48.894Z,15.40
2019-04-26T08:17:51.636Z,15.40
2019-04-26T08:20:43.461Z,15.40
2019-04-26T08:23:28.163Z,15.40
2019-04-26T08:25:46.638Z,15.30
2019-04-26T08:28:17.936Z,15.40
2019-04-26T08:30:48.284Z,15.60
2019-04-26T08:33:23.109Z,15.80
2019-04-26T08:35:53.346Z,15.80
2019-04-26T08:38:23.230Z,15.90
2019-04-26T08:40:52.171Z,16.10
2019-04-26T08:43:41.424Z,16.00
2019-04-26T08:46:24.490Z,16.10
2019-04-26T08:49:02.103Z,16.10
2019-04-26T08:51:33.701Z,16.10
2019-04-26T08:54:05.564Z,16.30
2019-04-26T08:56:37.072Z,16.20
2019-04-26T08:59:16.988Z,16.50
2019-04-26T09:01:52.982Z,16.90
2019-04-26T09:04:39.978Z,17.10
2019-04-26T09:07:14.389Z,17.30
2019-04-26T09:09:56.677Z,17.40
2019-04-26T09:12:23.237Z,17.60
2019-04-26T09:14:54.770Z,17.70
2019-04-26T09:17:22.268Z,17.70
2019-04-26T09:19:50.481Z,17.80
2019-04-26T09:22:26.552Z,17.90
2019-04-26T09:25:12.250Z,18.00
2019-04-26T09:27:58.922Z,18.40
2019-04-26T09:30:34.102Z,18.80
2019-04-26T09:33:12.965Z,18.80
2019-04-26T09:35:41.860Z,18.50
2019-04-26T09:38:09.431Z,18.40
2019-04-26T09:40:37.585Z,18.60
2019-04-26T09:43:24.342Z,18.60
2019-04-26T09:46:10.172Z,19.10
2019-04-26T09:48:54.008Z,19.20
2019-04-26T09:51:21.914Z,18.90
2019-04-26T09:53:49.523Z,18.70
2019-04-26T09:56:17.142Z,18.40
2019-04-26T09:58:45.108Z,18.70
2019-04-26T10:01:12.636Z,18.70
2019-04-26T10:03:40.251Z,18.40
2019-04-26T10:06:08.363Z,18.40
2019-04-26T10:08:36.070Z,18.80
2019-04-26T10:11:05.738Z,18.50
2019-04-26T10:13:39.671Z,18.60
2019-04-26T10:16:23.826Z,19.10
2019-04-26T10:18:58.359Z,19.30
2019-04-26T10:21:25.883Z,19.10
2019-04-26T10:23:53.503Z,19.30
2019-04-26T10:26:23.151Z,19.40
2019-04-26T10:28:52.149Z,19.50
2019-04-26T10:31:19.849Z,20.00
2019-04-26T10:33:47.491Z,20.10
2019-04-26T10:36:47.395Z,20.20
2019-04-26T10:39:17.033Z,20.40
2019-04-26T10:41:44.605Z,20.60
2019-04-26T10:44:12.463Z,20.70
2019-04-26T10:46:40.157Z,21.00
2019-04-26T10:49:36.267Z,21.30
2019-04-26T10:52:06.173Z,21.30
2019-04-26T10:54:36.887Z,20.20
2019-04-26T10:57:11.840Z,19.50
2019-04-26T10:59:45.573Z,19.90
2019-04-26T11:02:17.179Z,19.90
2019-04-26T11:04:44.789Z,20.40
2019-04-26T11:07:12.412Z,21.20
2019-04-26T11:09:40.129Z,21.10
2019-04-26T11:12:11.813Z,20.60
2019-04-26T11:14:40.115Z,20.60
2019-04-26T11:17:11.612Z,20.70
2019-04-26T11:19:37.368Z,20.10
2019-04-26T11:22:05.077Z,19.20
2019-04-26T11:24:32.899Z,18.90
2019-04-26T11:27:00.821Z,18.90
2019-04-26T11:29:28.735Z,19.50
2019-04-26T11:31:58.422Z,20.40
2019-04-26T11:34:27.786Z,21.20
2019-04-26T11:36:55.744Z,21.80
2019-04-26T11:39:23.807Z,21.60
2019-04-26T11:41:52.489Z,21.50
2019-04-26T11:44:23.423Z,21.60
2019-04-26T11:46:49.477Z,22.20
2019-04-26T11:49:17.693Z,22.30
2019-04-26T11:51:45.345Z,22.30
2019-04-26T11:54:13.128Z,21.40
2019-04-26T11:56:41.213Z,21.00
2019-04-26T11:59:09.116Z,21.60
2019-04-26T12:01:40.494Z,22.60
2019-04-26T12:04:22.587Z,22.10
2019-04-26T12:06:57.476Z,21.70
2019-04-26T12:09:39.634Z,21.60
2019-04-26T12:12:09.330Z,21.30
2019-04-26T12:14:36.596Z,21.20
2019-04-26T12:17:04.683Z,22.00
2019-04-26T12:19:32.900Z,22.20
2019-04-26T12:22:04.292Z,21.30
2019-04-26T12:24:34.309Z,21.10
2019-04-26T12:26:59.727Z,20.80
2019-04-26T12:29:27.631Z,20.00
2019-04-26T12:31:57.098Z,19.60
2019-04-26T12:34:25.271Z,19.30
2019-04-26T12:36:53.290Z,19.50
2019-04-26T12:39:21.405Z,19.50
2019-04-26T12:41:48.880Z,19.10
2019-04-26T12:44:16.505Z,18.70
2019-04-26T12:47:03.441Z,18.40
2019-04-26T12:49:32.112Z,18.20
2019-04-26T12:52:00.017Z,18.10
2019-04-26T12:54:28.295Z,18.30
2019-04-26T12:56:56.263Z,18.50
2019-04-26T12:59:26.597Z,18.60
2019-04-26T13:02:05.080Z,18.40
2019-04-26T13:04:35.513Z,18.40
2019-04-26T13:07:07.091Z,18.30
2019-04-26T13:09:34.383Z,18.30
2019-04-26T13:12:14.785Z,18.20
2019-04-26T13:15:05.673Z,18.00
2019-04-26T13:17:38.987Z,18.00
2019-04-26T13:20:07.569Z,18.20
2019-04-26T13:22:45.290Z,18.50
2019-04-26T13:25:15.480Z,18.30
2019-04-26T13:27:36.810Z,18.50
2019-04-26T13:30:06.772Z,18.70
2019-04-26T13:32:34.870Z,18.90
2019-04-26T13:35:02.486Z,19.40
2019-04-26T13:37:32.229Z,20.30
2019-04-26T13:40:00.072Z,21.40
2019-04-26T13:42:27.695Z,21.80
2019-04-26T13:45:10.927Z,21.90
2019-04-26T13:47:56.816Z,22.00
2019-04-26T13:50:40.678Z,22.30
2019-04-26T13:53:08.583Z,22.60
2019-04-26T13:55:36.426Z,23.40
2019-04-26T13:58:04.269Z,22.60
2019-04-26T14:00:32.417Z,22.70
2019-04-26T14:02:59.963Z,23.00
2019-04-26T14:05:27.584Z,22.40
2019-04-26T14:07:55.506Z,21.50
2019-04-26T14:10:23.670Z,20.10
2019-04-26T14:12:51.387Z,19.70
2019-04-26T14:15:19.641Z,20.20
2019-04-26T14:17:47.585Z,21.10
2019-04-26T14:20:15.493Z,21.20
2019-04-26T14:22:51.278Z,21.00
2019-04-26T14:25:21.252Z,21.10
2019-04-26T14:27:51.542Z,20.40
2019-04-26T14:30:19.832Z,20.40
2019-04-26T14:32:47.453Z,20.10
2019-04-26T14:35:17.088Z,20.00
2019-04-26T14:37:45.523Z,19.50
2019-04-26T14:40:17.582Z,19.10
2019-04-26T14:42:47.287Z,19.10
2019-04-26T14:45:23.417Z,18.70
2019-04-26T14:47:47.424Z,18.40
2019-04-26T14:50:14.505Z,18.20
2019-04-26T14:52:42.702Z,18.00
2019-04-26T14:55:10.287Z,17.80
2019-04-26T14:57:37.868Z,17.60
2019-04-26T15:00:07.625Z,17.40
2019-04-26T15:02:56.280Z,17.30
2019-04-26T15:05:58.594Z,17.10
2019-04-26T15:08:26.223Z,17.00
2019-04-26T15:11:00.764Z,17.00
2019-04-26T15:13:23.659Z,16.90
2019-04-26T15:15:52.565Z,16.80
2019-04-26T15:18:20.396Z,16.80
2019-04-26T15:20:48.047Z,16.70
2019-04-26T15:23:19.489Z,16.70
2019-04-26T15:25:48.497Z,17.00
2019-04-26T15:28:14.855Z,18.00
2019-04-26T15:30:46.673Z,18.40
2019-04-26T15:33:12.750Z,18.30
2019-04-26T15:35:42.219Z,18.00
2019-04-26T15:38:10.055Z,17.70
2019-04-26T15:41:05.475Z,17.50
2019-04-26T15:43:42.790Z,17.10
2019-04-26T15:46:30.121Z,16.20
2019-04-26T15:49:36.883Z,15.30
2019-04-26T15:52:04.877Z,14.50
2019-04-26T15:54:32.520Z,13.70
2019-04-26T15:57:02.012Z,13.40
2019-04-26T15:59:32.603Z,13.10
2019-04-26T16:02:02.277Z,12.90
2019-04-26T16:04:30.246Z,12.90
2019-04-26T16:06:58.070Z,13.00
2019-04-26T16:09:25.723Z,13.60
2019-04-26T16:11:55.243Z,14.30
2019-04-26T16:14:26.451Z,14.70
2019-04-26T16:16:52.806Z,15.00
2019-04-26T16:19:20.442Z,15.10
2019-04-26T16:21:54.241Z,15.20
2019-04-26T16:24:18.763Z,15.40
2019-04-26T16:26:50.995Z,15.90
2019-04-26T16:29:42.504Z,16.60
2019-04-26T16:32:28.645Z,16.90
2019-04-26T16:34:56.350Z,17.10
2019-04-26T16:37:24.003Z,17.70
2019-04-26T16:39:51.716Z,18.60
2019-04-26T16:42:19.546Z,19.00
2019-04-26T16:44:48.174Z,19.10
2019-04-26T16:47:15.806Z,18.30
2019-04-26T16:49:46.485Z,17.50
2019-04-26T16:52:14.033Z,17.20
2019-04-26T16:54:42.417Z,17.70
2019-04-26T16:57:11.602Z,18.10
2019-04-26T16:59:46.825Z,17.80
2019-04-26T17:02:10.647Z,17.40
2019-04-26T17:04:38.250Z,17.00
2019-04-26T17:07:06.157Z,16.50
2019-04-26T17:09:54.365Z,16.20
2019-04-26T17:12:05.133Z,15.90
2019-04-26T17:14:34.171Z,15.70
2019-04-26T17:17:03.215Z,15.50
2019-04-26T17:19:35.851Z,15.30
2019-04-26T17:22:23.337Z,15.20
2019-04-26T17:25:08.623Z,15.10
2019-04-26T17:27:42.647Z,14.80
2019-04-26T17:30:09.009Z,14.60
2019-04-26T17:32:36.913Z,14.20
2019-04-26T17:35:07.437Z,14.10
2019-04-26T17:37:34.723Z,13.90
2019-04-26T17:40:02.365Z,13.90
2019-04-26T17:42:35.864Z,13.80
2019-04-26T17:45:04.366Z,13.90
2019-04-26T17:47:34.671Z,14.00
2019-04-26T17:50:02.774Z,14.10
2019-04-26T17:52:29.805Z,14.00
2019-04-26T17:54:57.510Z,14.00
2019-04-26T17:57:34.748Z,14.00
2019-04-26T18:00:07.218Z,13.90
2019-04-26T18:02:40.231Z,13.80
2019-04-26T18:05:00.610Z,13.70
2019-04-26T18:07:39.852Z,13.60
2019-04-26T18:09:57.038Z,13.60
2019-04-26T18:12:24.911Z,13.60
2019-04-26T18:14:52.605Z,13.40
2019-04-26T18:17:38.662Z,13.40
2019-04-26T18:20:27.633Z,13.40
2019-04-26T18:23:03.485Z,13.40
2019-04-26T18:25:32.498Z,13.40
2019-04-26T18:28:00.146Z,13.40
2019-04-26T18:30:28.278Z,13.50
2019-04-26T18:32:55.922Z,13.50
2019-04-26T18:35:23.913Z,13.50
2019-04-26T18:37:53.710Z,13.50
2019-04-26T18:40:23.051Z,13.50
2019-04-26T18:42:50.851Z,13.50
2019-04-26T18:45:28.041Z,13.40
2019-04-26T18:47:48.198Z,13.40
2019-04-26T18:50:16.541Z,13.40
2019-04-26T18:53:14.286Z,13.40
2019-04-26T18:55:43.834Z,13.40
2019-04-26T18:58:11.507Z,13.30
2019-04-26T19:00:40.645Z,13.30
2019-04-26T19:03:08.774Z,13.30
2019-04-26T19:05:36.537Z,13.30
2019-04-26T19:08:05.130Z,13.10
2019-04-26T19:10:34.353Z,13.10
2019-04-26T19:13:11.928Z,12.90
2019-04-26T19:15:51.544Z,12.70
2019-04-26T19:18:33.682Z,12.60
2019-04-26T19:21:19.719Z,12.60
2019-04-26T19:23:47.956Z,12.60
2019-04-26T19:26:16.314Z,12.60
2019-04-26T19:28:44.563Z,12.50
2019-04-26T19:31:12.869Z,12.50
2019-04-26T19:33:40.684Z,12.50
2019-04-26T19:36:08.291Z,12.30
2019-04-26T19:38:35.936Z,12.30
2019-04-26T19:41:03.706Z,12.20
2019-04-26T19:43:34.994Z,12.00
2019-04-26T19:46:12.773Z,11.90
2019-04-26T19:49:00.061Z,11.70
2019-04-26T19:51:52.053Z,11.50
2019-04-26T19:54:32.517Z,11.30
2019-04-26T19:57:01.053Z,11.00
2019-04-26T19:59:33.159Z,10.70
2019-04-26T20:01:58.478Z,10.50
2019-04-26T20:04:30.624Z,10.40
2019-04-26T20:06:56.364Z,10.10
2019-04-26T20:09:26.405Z,10.00
2019-04-26T20:11:58.108Z,10.20
2019-04-26T20:14:39.522Z,10.30
2019-04-26T20:16:53.942Z,10.10
2019-04-26T20:19:32.381Z,10.10
2019-04-26T20:21:52.700Z,10.00
2019-04-26T20:24:20.443Z,10.00
2019-04-26T20:26:48.757Z,10.00
2019-04-26T20:29:16.613Z,10.00
2019-04-26T20:32:02.056Z,9.90
2019-04-26T20:34:29.857Z,9.80
2019-04-26T20:36:58.166Z,9.60
2019-04-26T20:39:26.197Z,9.40
2019-04-26T20:42:01.147Z,9.40
2019-04-26T20:44:28.272Z,9.30
2019-04-26T20:46:52.539Z,9.10
2019-04-26T20:49:21.840Z,9.10
2019-04-26T20:51:49.630Z,9.10
2019-04-26T20:54:17.967Z,9.20
2019-04-26T20:56:46.106Z,9.30
2019-04-26T20:59:16.760Z,9.50
2019-04-26T21:01:46.624Z,9.50
2019-04-26T21:04:33.808Z,9.60
2019-04-26T21:06:44.305Z,9.60
2019-04-26T21:09:14.328Z,9.80
2019-04-26T21:14:26.269Z,9.90
2019-04-26T21:16:53.867Z,9.90
2019-04-26T21:19:22.112Z,9.90
2019-04-26T21:21:50.415Z,9.90
2019-04-26T21:24:23.459Z,10.00
2019-04-26T21:27:09.818Z,10.10
2019-04-26T21:29:59.171Z,10.30
2019-04-26T21:32:44.722Z,10.40
2019-04-26T21:35:14.732Z,10.50
2019-04-26T21:37:49.482Z,10.60
2019-04-26T21:40:40.092Z,10.60
2019-04-26T21:43:07.765Z,10.50
2019-04-26T21:45:35.384Z,10.50
2019-04-26T21:48:06.708Z,10.50
2019-04-26T21:50:35.740Z,10.50
2019-04-26T21:53:05.114Z,10.40
2019-04-26T21:55:35.298Z,10.40
2019-04-26T21:58:00.756Z,10.40
2019-04-26T22:00:51.316Z,10.50
2019-04-26T22:03:19.559Z,10.50
2019-04-26T22:05:49.823Z,10.50
2019-04-26T22:08:24.597Z,10.50
2019-04-26T22:10:48.603Z,10.50
2019-04-26T22:13:23.397Z,10.50
2019-04-26T22:16:09.529Z,10.50
2019-04-26T22:18:46.583Z,10.50
2019-04-26T22:21:33.999Z,10.60
2019-04-26T22:24:16.114Z,10.50
2019-04-26T22:26:47.694Z,10.50
2019-04-26T22:29:16.560Z,10.60
2019-04-26T22:31:43.064Z,10.50
2019-04-26T22:34:12.824Z,10.40
2019-04-26T22:36:40.901Z,10.40
2019-04-26T22:39:16.452Z,10.40
2019-04-26T22:41:44.363Z,10.30
2019-04-26T22:44:18.331Z,10.20
2019-04-26T22:47:14.668Z,10.20
2019-04-26T22:49:45.152Z,10.20
2019-04-26T22:52:16.249Z,10.00
2019-04-26T22:54:42.810Z,10.00
2019-04-26T22:57:13.215Z,9.90
2019-04-26T22:59:43.301Z,9.80
2019-04-26T23:02:13.826Z,9.80
2019-04-26T23:04:41.957Z,9.80
2019-04-26T23:07:10.348Z,9.70
2019-04-26T23:09:38.600Z,9.60
2019-04-26T23:12:25.352Z,9.50
2019-04-26T23:15:09.707Z,9.30
2019-04-26T23:17:56.565Z,9.20
2019-04-26T23:20:43.062Z,9.10
2019-04-26T23:23:10.657Z,9.10
2019-04-26T23:25:38.557Z,9.20
2019-04-26T23:28:06.083Z,9.20
2019-04-26T23:30:33.973Z,9.10
2019-04-26T23:33:02.152Z,9.10
2019-04-26T23:35:29.773Z,9.10
2019-04-26T23:38:00.961Z,9.10
2019-04-26T23:40:28.916Z,9.10
2019-04-26T23:42:56.259Z,9.20
2019-04-26T23:45:25.040Z,9.10
2019-04-26T23:47:53.065Z,9.10
2019-04-26T23:50:20.643Z,9.20
2019-04-26T23:52:49.499Z,9.30
2019-04-26T23:55:18.168Z,9.30
